Hauptseite
METAR-TAF:

METAR-TAF

Flughäfen :

Ipiales, Kolumbien

Breite: 00-49N, Länge: 077-38W, Höhe: 2961 m

Beobachtung

Neuester Wetterbericht von vor 56 Minuten, um 21:00 UTC
Wind 10 kt aus Ost
Temperatur 13°C
Luftfeuchtigkeit 77%
Luftdruck 1029 hPa
Sichtweite 10 km oder mehr
Geschlossene Wolkendecke in der Höhe von 1600 ft
Schauer in der Nähe

METAR: SKIP 122100Z 10010KT 9999 VCSH OVC016 13/09 Q1029 RMK VCSH/W

Zeit: 16:56 (21:56 UTC)


TAF: fehlend

Wetterbeobachtungen und Prognosen von mehr als 4000 Flughäfen (METAR und TAF Bericht).

Die verfügbaren Stationen werden durch gelbe und rote Markierungen auf der Karte dargestellt.

Führen Sie die Maus auf sie, um den Namen der Station zu sehen.

Darauf klicken, um die Beobachtung von Wetterbeobachtungen und Prognosen zu sehen.

Um die Karte zu ändern : klicken Sie auf den grünen Tasten mit einem schwarzen Kreuz Zum Vergrößern, auf den grünen Button mit einem Gedankenstrich zu verkleinern, oder auf die grünen Pfeile für benachbarte Karten.


METAR-TAF: